sensor_id;sensor_type;location;lat;lon;timestamp;P1;durP1;ratioP1;P2;durP2;ratioP2
75220;SDS011;63802;53.232;6.570;2023-04-25T00:02:10;14.30;;;2.92;;
75220;SDS011;63802;53.232;6.570;2023-04-25T00:04:36;14.50;;;3.33;;
75220;SDS011;63802;53.232;6.570;2023-04-25T00:07:02;16.23;;;3.22;;
75220;SDS011;63802;53.232;6.570;2023-04-25T00:09:28;16.42;;;2.88;;
75220;SDS011;63802;53.232;6.570;2023-04-25T00:11:54;13.20;;;3.10;;
75220;SDS011;63802;53.232;6.570;2023-04-25T00:14:20;12.82;;;3.42;;
75220;SDS011;63802;53.232;6.570;2023-04-25T00:16:46;20.10;;;3.25;;
75220;SDS011;63802;53.232;6.570;2023-04-25T00:19:11;19.92;;;2.90;;
75220;SDS011;63802;53.232;6.570;2023-04-25T00:21:38;14.35;;;3.00;;
75220;SDS011;63802;53.232;6.570;2023-04-25T00:24:05;18.33;;;4.00;;
75220;SDS011;63802;53.232;6.570;2023-04-25T00:26:31;16.30;;;2.90;;
75220;SDS011;63802;53.232;6.570;2023-04-25T00:28:58;14.25;;;2.92;;
75220;SDS011;63802;53.232;6.570;2023-04-25T00:31:23;11.30;;;2.55;;
75220;SDS011;63802;53.232;6.570;2023-04-25T00:33:49;10.48;;;2.20;;
75220;SDS011;63802;53.232;6.570;2023-04-25T00:36:15;10.60;;;1.80;;
75220;SDS011;63802;53.232;6.570;2023-04-25T00:38:40;6.80;;;2.60;;
75220;SDS011;63802;53.232;6.570;2023-04-25T00:41:06;10.20;;;1.95;;
75220;SDS011;63802;53.232;6.570;2023-04-25T00:43:32;16.48;;;2.58;;
75220;SDS011;63802;53.232;6.570;2023-04-25T00:45:59;15.23;;;2.60;;
75220;SDS011;63802;53.232;6.570;2023-04-25T00:48:25;8.10;;;2.08;;
75220;SDS011;63802;53.232;6.570;2023-04-25T00:50:55;9.48;;;2.75;;
75220;SDS011;63802;53.232;6.570;2023-04-25T00:53:23;9.80;;;2.28;;
75220;SDS011;63802;53.232;6.570;2023-04-25T00:55:51;16.15;;;2.22;;
75220;SDS011;63802;53.232;6.570;2023-04-25T00:58:18;7.20;;;1.70;;
75220;SDS011;63802;53.232;6.570;2023-04-25T01:00:47;10.73;;;2.60;;
75220;SDS011;63802;53.232;6.570;2023-04-25T01:03:14;15.18;;;2.53;;
75220;SDS011;63802;53.232;6.570;2023-04-25T01:05:41;9.95;;;2.00;;
75220;SDS011;63802;53.232;6.570;2023-04-25T01:08:07;4.88;;;1.30;;
75220;SDS011;63802;53.232;6.570;2023-04-25T01:10:32;16.73;;;2.38;;
75220;SDS011;63802;53.232;6.570;2023-04-25T01:12:57;14.73;;;2.70;;
75220;SDS011;63802;53.232;6.570;2023-04-25T01:15:23;8.80;;;1.90;;
75220;SDS011;63802;53.232;6.570;2023-04-25T01:17:49;7.18;;;1.80;;
75220;SDS011;63802;53.232;6.570;2023-04-25T01:20:14;9.50;;;2.20;;
75220;SDS011;63802;53.232;6.570;2023-04-25T01:22:42;9.82;;;2.05;;
75220;SDS011;63802;53.232;6.570;2023-04-25T01:25:08;11.35;;;1.90;;
75220;SDS011;63802;53.232;6.570;2023-04-25T01:27:35;11.30;;;2.50;;
75220;SDS011;63802;53.232;6.570;2023-04-25T01:30:01;6.93;;;1.88;;
75220;SDS011;63802;53.232;6.570;2023-04-25T01:32:26;6.53;;;1.90;;
75220;SDS011;63802;53.232;6.570;2023-04-25T01:34:52;13.68;;;2.00;;
75220;SDS011;63802;53.232;6.570;2023-04-25T01:37:17;10.02;;;2.08;;
75220;SDS011;63802;53.232;6.570;2023-04-25T01:39:43;8.27;;;1.60;;
75220;SDS011;63802;53.232;6.570;2023-04-25T01:42:09;9.77;;;2.20;;
75220;SDS011;63802;53.232;6.570;2023-04-25T01:44:34;7.40;;;2.25;;
75220;SDS011;63802;53.232;6.570;2023-04-25T01:47:00;12.05;;;2.78;;
75220;SDS011;63802;53.232;6.570;2023-04-25T01:49:25;9.85;;;2.60;;
75220;SDS011;63802;53.232;6.570;2023-04-25T01:51:51;12.88;;;2.03;;
75220;SDS011;63802;53.232;6.570;2023-04-25T01:54:17;9.02;;;1.77;;
75220;SDS011;63802;53.232;6.570;2023-04-25T01:56:43;11.18;;;2.35;;
75220;SDS011;63802;53.232;6.570;2023-04-25T01:59:09;6.78;;;1.92;;
75220;SDS011;63802;53.232;6.570;2023-04-25T02:01:34;13.98;;;2.58;;
75220;SDS011;63802;53.232;6.570;2023-04-25T02:04:00;8.18;;;2.17;;
75220;SDS011;63802;53.232;6.570;2023-04-25T02:06:25;10.63;;;1.98;;
75220;SDS011;63802;53.232;6.570;2023-04-25T02:08:51;19.63;;;2.13;;
75220;SDS011;63802;53.232;6.570;2023-04-25T02:11:16;14.57;;;2.80;;
75220;SDS011;63802;53.232;6.570;2023-04-25T02:13:41;11.18;;;2.08;;
75220;SDS011;63802;53.232;6.570;2023-04-25T02:16:07;12.38;;;2.45;;
75220;SDS011;63802;53.232;6.570;2023-04-25T02:18:32;10.27;;;2.53;;
75220;SDS011;63802;53.232;6.570;2023-04-25T02:20:58;5.50;;;1.52;;
75220;SDS011;63802;53.232;6.570;2023-04-25T02:23:24;8.73;;;2.47;;
75220;SDS011;63802;53.232;6.570;2023-04-25T02:25:50;14.38;;;2.35;;
75220;SDS011;63802;53.232;6.570;2023-04-25T02:28:17;10.68;;;2.35;;
75220;SDS011;63802;53.232;6.570;2023-04-25T02:30:42;7.70;;;2.30;;
75220;SDS011;63802;53.232;6.570;2023-04-25T02:33:07;12.13;;;2.20;;
75220;SDS011;63802;53.232;6.570;2023-04-25T02:35:33;8.93;;;1.35;;
75220;SDS011;63802;53.232;6.570;2023-04-25T02:37:58;12.70;;;2.85;;
75220;SDS011;63802;53.232;6.570;2023-04-25T02:40:24;5.80;;;1.85;;
75220;SDS011;63802;53.232;6.570;2023-04-25T02:42:49;10.23;;;1.85;;
75220;SDS011;63802;53.232;6.570;2023-04-25T02:45:15;9.43;;;2.03;;
75220;SDS011;63802;53.232;6.570;2023-04-25T02:47:40;6.60;;;1.80;;
75220;SDS011;63802;53.232;6.570;2023-04-25T02:50:06;18.13;;;2.10;;
75220;SDS011;63802;53.232;6.570;2023-04-25T02:52:32;7.70;;;1.65;;
75220;SDS011;63802;53.232;6.570;2023-04-25T02:54:57;7.07;;;2.00;;
75220;SDS011;63802;53.232;6.570;2023-04-25T02:57:23;10.63;;;1.80;;
75220;SDS011;63802;53.232;6.570;2023-04-25T02:59:48;8.25;;;1.95;;
75220;SDS011;63802;53.232;6.570;2023-04-25T03:02:14;9.60;;;1.70;;
75220;SDS011;63802;53.232;6.570;2023-04-25T03:04:39;7.60;;;2.28;;
75220;SDS011;63802;53.232;6.570;2023-04-25T03:07:05;4.75;;;1.15;;
75220;SDS011;63802;53.232;6.570;2023-04-25T03:09:35;7.18;;;1.48;;
75220;SDS011;63802;53.232;6.570;2023-04-25T03:12:01;9.32;;;1.73;;
75220;SDS011;63802;53.232;6.570;2023-04-25T03:14:26;7.28;;;1.38;;
75220;SDS011;63802;53.232;6.570;2023-04-25T03:16:52;13.30;;;2.03;;
75220;SDS011;63802;53.232;6.570;2023-04-25T03:19:17;12.80;;;2.67;;
75220;SDS011;63802;53.232;6.570;2023-04-25T03:21:43;15.73;;;1.90;;
75220;SDS011;63802;53.232;6.570;2023-04-25T03:24:12;14.35;;;1.92;;
75220;SDS011;63802;53.232;6.570;2023-04-25T03:26:37;13.88;;;1.92;;
75220;SDS011;63802;53.232;6.570;2023-04-25T03:29:04;7.18;;;1.65;;
75220;SDS011;63802;53.232;6.570;2023-04-25T03:31:29;10.45;;;1.70;;
75220;SDS011;63802;53.232;6.570;2023-04-25T03:33:55;8.60;;;1.58;;
75220;SDS011;63802;53.232;6.570;2023-04-25T03:36:20;5.05;;;1.40;;
75220;SDS011;63802;53.232;6.570;2023-04-25T03:38:46;7.47;;;2.00;;
75220;SDS011;63802;53.232;6.570;2023-04-25T03:41:13;7.75;;;2.15;;
75220;SDS011;63802;53.232;6.570;2023-04-25T03:43:39;10.70;;;1.70;;
75220;SDS011;63802;53.232;6.570;2023-04-25T03:46:04;7.13;;;1.48;;
75220;SDS011;63802;53.232;6.570;2023-04-25T03:48:30;8.13;;;1.40;;
75220;SDS011;63802;53.232;6.570;2023-04-25T03:50:56;5.53;;;1.63;;
75220;SDS011;63802;53.232;6.570;2023-04-25T03:53:24;7.78;;;1.67;;
75220;SDS011;63802;53.232;6.570;2023-04-25T03:55:50;11.32;;;2.28;;
75220;SDS011;63802;53.232;6.570;2023-04-25T03:58:16;7.68;;;1.77;;
75220;SDS011;63802;53.232;6.570;2023-04-25T04:00:42;11.50;;;1.63;;
75220;SDS011;63802;53.232;6.570;2023-04-25T04:03:08;8.80;;;1.90;;
75220;SDS011;63802;53.232;6.570;2023-04-25T04:05:33;8.88;;;1.67;;
75220;SDS011;63802;53.232;6.570;2023-04-25T04:07:58;14.27;;;1.65;;
75220;SDS011;63802;53.232;6.570;2023-04-25T04:10:24;5.82;;;1.52;;
75220;SDS011;63802;53.232;6.570;2023-04-25T04:12:52;7.70;;;2.15;;
75220;SDS011;63802;53.232;6.570;2023-04-25T04:15:17;9.73;;;1.55;;
75220;SDS011;63802;53.232;6.570;2023-04-25T04:17:43;9.82;;;1.98;;
75220;SDS011;63802;53.232;6.570;2023-04-25T04:20:08;3.40;;;1.40;;
75220;SDS011;63802;53.232;6.570;2023-04-25T04:22:34;7.68;;;1.85;;
75220;SDS011;63802;53.232;6.570;2023-04-25T04:25:03;6.30;;;1.67;;
75220;SDS011;63802;53.232;6.570;2023-04-25T04:27:30;14.60;;;2.08;;
75220;SDS011;63802;53.232;6.570;2023-04-25T04:29:56;9.43;;;1.85;;
75220;SDS011;63802;53.232;6.570;2023-04-25T04:32:22;7.13;;;1.70;;
75220;SDS011;63802;53.232;6.570;2023-04-25T04:34:49;8.55;;;2.00;;
75220;SDS011;63802;53.232;6.570;2023-04-25T04:37:14;7.50;;;1.95;;
75220;SDS011;63802;53.232;6.570;2023-04-25T04:39:40;6.00;;;1.42;;
75220;SDS011;63802;53.232;6.570;2023-04-25T04:42:05;6.35;;;1.85;;
75220;SDS011;63802;53.232;6.570;2023-04-25T04:44:31;10.30;;;2.05;;
75220;SDS011;63802;53.232;6.570;2023-04-25T04:46:59;6.93;;;1.70;;
75220;SDS011;63802;53.232;6.570;2023-04-25T04:49:24;9.38;;;1.67;;
75220;SDS011;63802;53.232;6.570;2023-04-25T04:51:50;14.82;;;2.30;;
75220;SDS011;63802;53.232;6.570;2023-04-25T04:54:15;11.95;;;1.85;;
75220;SDS011;63802;53.232;6.570;2023-04-25T04:56:41;9.25;;;1.63;;
75220;SDS011;63802;53.232;6.570;2023-04-25T04:59:06;8.88;;;2.95;;
75220;SDS011;63802;53.232;6.570;2023-04-25T05:01:32;15.35;;;2.10;;
75220;SDS011;63802;53.232;6.570;2023-04-25T05:04:00;9.85;;;1.60;;
75220;SDS011;63802;53.232;6.570;2023-04-25T05:06:26;8.77;;;1.63;;
75220;SDS011;63802;53.232;6.570;2023-04-25T05:08:54;6.20;;;1.65;;
75220;SDS011;63802;53.232;6.570;2023-04-25T05:11:20;2.65;;;1.30;;
75220;SDS011;63802;53.232;6.570;2023-04-25T05:13:46;8.65;;;1.42;;
75220;SDS011;63802;53.232;6.570;2023-04-25T05:16:12;4.60;;;1.25;;
75220;SDS011;63802;53.232;6.570;2023-04-25T05:18:38;6.55;;;1.88;;
75220;SDS011;63802;53.232;6.570;2023-04-25T05:21:04;3.45;;;1.15;;
75220;SDS011;63802;53.232;6.570;2023-04-25T05:23:30;3.65;;;1.10;;
75220;SDS011;63802;53.232;6.570;2023-04-25T05:25:56;3.28;;;1.00;;
75220;SDS011;63802;53.232;6.570;2023-04-25T05:28:21;5.78;;;1.10;;
75220;SDS011;63802;53.232;6.570;2023-04-25T05:30:47;0.82;;;0.60;;
75220;SDS011;63802;53.232;6.570;2023-04-25T05:33:13;5.78;;;1.17;;
75220;SDS011;63802;53.232;6.570;2023-04-25T05:35:38;4.45;;;2.03;;
75220;SDS011;63802;53.232;6.570;2023-04-25T05:38:04;5.20;;;1.20;;
75220;SDS011;63802;53.232;6.570;2023-04-25T05:40:29;8.52;;;1.35;;
75220;SDS011;63802;53.232;6.570;2023-04-25T05:42:55;4.47;;;1.38;;
75220;SDS011;63802;53.232;6.570;2023-04-25T05:45:20;2.25;;;0.90;;
75220;SDS011;63802;53.232;6.570;2023-04-25T05:47:45;5.43;;;1.25;;
75220;SDS011;63802;53.232;6.570;2023-04-25T05:50:11;1.50;;;1.15;;
75220;SDS011;63802;53.232;6.570;2023-04-25T05:52:37;5.05;;;1.42;;
75220;SDS011;63802;53.232;6.570;2023-04-25T05:55:03;4.05;;;0.90;;
75220;SDS011;63802;53.232;6.570;2023-04-25T05:57:29;8.98;;;1.52;;
75220;SDS011;63802;53.232;6.570;2023-04-25T05:59:55;6.03;;;1.35;;
75220;SDS011;63802;53.232;6.570;2023-04-25T06:02:21;6.32;;;1.55;;
75220;SDS011;63802;53.232;6.570;2023-04-25T06:04:48;3.55;;;0.90;;
75220;SDS011;63802;53.232;6.570;2023-04-25T06:07:15;7.60;;;2.15;;
75220;SDS011;63802;53.232;6.570;2023-04-25T06:09:41;6.22;;;1.40;;
75220;SDS011;63802;53.232;6.570;2023-04-25T06:12:06;4.65;;;1.70;;
75220;SDS011;63802;53.232;6.570;2023-04-25T06:14:33;6.07;;;1.40;;
75220;SDS011;63802;53.232;6.570;2023-04-25T06:16:59;3.85;;;1.50;;
75220;SDS011;63802;53.232;6.570;2023-04-25T06:19:31;2.92;;;1.20;;
75220;SDS011;63802;53.232;6.570;2023-04-25T06:21:57;3.75;;;1.30;;
75220;SDS011;63802;53.232;6.570;2023-04-25T06:24:23;9.88;;;1.15;;
75220;SDS011;63802;53.232;6.570;2023-04-25T06:26:48;5.78;;;1.20;;
75220;SDS011;63802;53.232;6.570;2023-04-25T06:29:14;5.55;;;1.20;;
75220;SDS011;63802;53.232;6.570;2023-04-25T06:31:39;4.57;;;0.98;;
75220;SDS011;63802;53.232;6.570;2023-04-25T06:34:05;6.50;;;1.38;;
75220;SDS011;63802;53.232;6.570;2023-04-25T06:36:30;6.55;;;1.35;;
75220;SDS011;63802;53.232;6.570;2023-04-25T06:38:56;3.97;;;1.20;;
75220;SDS011;63802;53.232;6.570;2023-04-25T06:41:21;6.15;;;1.48;;
75220;SDS011;63802;53.232;6.570;2023-04-25T06:43:49;6.43;;;1.65;;
75220;SDS011;63802;53.232;6.570;2023-04-25T06:46:15;7.25;;;1.13;;
75220;SDS011;63802;53.232;6.570;2023-04-25T06:48:40;6.97;;;1.25;;
75220;SDS011;63802;53.232;6.570;2023-04-25T06:51:05;11.02;;;2.08;;
75220;SDS011;63802;53.232;6.570;2023-04-25T06:53:31;6.70;;;1.20;;
75220;SDS011;63802;53.232;6.570;2023-04-25T06:55:56;6.72;;;1.05;;
75220;SDS011;63802;53.232;6.570;2023-04-25T06:58:22;6.22;;;1.50;;
75220;SDS011;63802;53.232;6.570;2023-04-25T07:00:47;8.50;;;1.48;;
75220;SDS011;63802;53.232;6.570;2023-04-25T07:03:16;5.75;;;1.17;;
75220;SDS011;63802;53.232;6.570;2023-04-25T07:05:41;10.38;;;1.50;;
75220;SDS011;63802;53.232;6.570;2023-04-25T07:08:06;10.88;;;1.25;;
75220;SDS011;63802;53.232;6.570;2023-04-25T07:10:32;4.90;;;1.10;;
75220;SDS011;63802;53.232;6.570;2023-04-25T07:12:57;3.00;;;1.00;;
75220;SDS011;63802;53.232;6.570;2023-04-25T07:15:23;6.93;;;1.35;;
75220;SDS011;63802;53.232;6.570;2023-04-25T07:17:48;8.50;;;1.35;;
75220;SDS011;63802;53.232;6.570;2023-04-25T07:20:13;5.22;;;1.10;;
75220;SDS011;63802;53.232;6.570;2023-04-25T07:22:39;4.57;;;1.00;;
75220;SDS011;63802;53.232;6.570;2023-04-25T07:25:05;4.15;;;0.95;;
75220;SDS011;63802;53.232;6.570;2023-04-25T07:27:31;6.03;;;2.00;;
75220;SDS011;63802;53.232;6.570;2023-04-25T07:29:56;4.15;;;1.00;;
75220;SDS011;63802;53.232;6.570;2023-04-25T07:32:22;3.35;;;1.27;;
75220;SDS011;63802;53.232;6.570;2023-04-25T07:34:47;6.80;;;1.30;;
75220;SDS011;63802;53.232;6.570;2023-04-25T07:37:13;5.57;;;1.00;;
75220;SDS011;63802;53.232;6.570;2023-04-25T07:39:39;8.95;;;0.90;;
75220;SDS011;63802;53.232;6.570;2023-04-25T07:42:05;4.60;;;1.23;;
75220;SDS011;63802;53.232;6.570;2023-04-25T07:44:33;7.05;;;0.98;;
75220;SDS011;63802;53.232;6.570;2023-04-25T07:47:04;7.03;;;1.08;;
75220;SDS011;63802;53.232;6.570;2023-04-25T07:49:32;5.80;;;1.10;;
75220;SDS011;63802;53.232;6.570;2023-04-25T07:51:57;4.22;;;0.98;;
75220;SDS011;63802;53.232;6.570;2023-04-25T07:54:26;4.18;;;1.13;;
75220;SDS011;63802;53.232;6.570;2023-04-25T07:56:51;5.20;;;1.05;;
75220;SDS011;63802;53.232;6.570;2023-04-25T07:59:17;3.55;;;0.90;;
75220;SDS011;63802;53.232;6.570;2023-04-25T08:01:42;6.32;;;1.23;;
75220;SDS011;63802;53.232;6.570;2023-04-25T08:04:07;3.40;;;1.15;;
75220;SDS011;63802;53.232;6.570;2023-04-25T08:06:33;6.75;;;0.95;;
75220;SDS011;63802;53.232;6.570;2023-04-25T08:08:58;4.07;;;0.95;;
75220;SDS011;63802;53.232;6.570;2023-04-25T08:11:23;5.97;;;0.70;;
75220;SDS011;63802;53.232;6.570;2023-04-25T08:13:50;3.78;;;0.80;;
75220;SDS011;63802;53.232;6.570;2023-04-25T08:16:15;1.65;;;0.63;;
75220;SDS011;63802;53.232;6.570;2023-04-25T08:18:40;6.38;;;1.05;;
75220;SDS011;63802;53.232;6.570;2023-04-25T08:21:06;2.60;;;0.77;;
75220;SDS011;63802;53.232;6.570;2023-04-25T08:23:33;2.83;;;0.68;;
75220;SDS011;63802;53.232;6.570;2023-04-25T08:25:59;4.43;;;1.00;;
75220;SDS011;63802;53.232;6.570;2023-04-25T08:28:24;2.55;;;0.85;;
75220;SDS011;63802;53.232;6.570;2023-04-25T08:30:50;3.13;;;0.73;;
75220;SDS011;63802;53.232;6.570;2023-04-25T08:33:16;2.97;;;0.60;;
75220;SDS011;63802;53.232;6.570;2023-04-25T08:35:43;2.33;;;0.50;;
75220;SDS011;63802;53.232;6.570;2023-04-25T08:38:10;3.28;;;0.85;;
75220;SDS011;63802;53.232;6.570;2023-04-25T08:40:37;4.13;;;1.00;;
75220;SDS011;63802;53.232;6.570;2023-04-25T08:43:05;2.90;;;0.75;;
75220;SDS011;63802;53.232;6.570;2023-04-25T08:45:36;2.30;;;0.65;;
75220;SDS011;63802;53.232;6.570;2023-04-25T08:48:11;0.70;;;0.70;;
75220;SDS011;63802;53.232;6.570;2023-04-25T08:50:39;6.03;;;0.82;;
75220;SDS011;63802;53.232;6.570;2023-04-25T08:53:12;9.90;;;1.73;;
75220;SDS011;63802;53.232;6.570;2023-04-25T08:55:43;3.58;;;0.73;;
75220;SDS011;63802;53.232;6.570;2023-04-25T08:58:11;6.15;;;0.98;;
75220;SDS011;63802;53.232;6.570;2023-04-25T09:00:37;4.75;;;1.15;;
75220;SDS011;63802;53.232;6.570;2023-04-25T09:03:03;3.92;;;1.25;;
75220;SDS011;63802;53.232;6.570;2023-04-25T09:05:29;4.35;;;1.10;;
75220;SDS011;63802;53.232;6.570;2023-04-25T09:07:55;7.05;;;1.25;;
75220;SDS011;63802;53.232;6.570;2023-04-25T09:10:21;7.90;;;1.27;;
75220;SDS011;63802;53.232;6.570;2023-04-25T09:13:06;8.23;;;1.30;;
75220;SDS011;63802;53.232;6.570;2023-04-25T09:15:49;7.90;;;1.10;;
75220;SDS011;63802;53.232;6.570;2023-04-25T09:18:29;5.25;;;0.90;;
75220;SDS011;63802;53.232;6.570;2023-04-25T09:20:57;2.88;;;1.00;;
75220;SDS011;63802;53.232;6.570;2023-04-25T09:23:47;3.97;;;0.95;;
75220;SDS011;63802;53.232;6.570;2023-04-25T09:26:14;7.50;;;1.63;;
75220;SDS011;63802;53.232;6.570;2023-04-25T09:28:42;6.10;;;1.50;;
75220;SDS011;63802;53.232;6.570;2023-04-25T09:31:09;7.82;;;1.38;;
75220;SDS011;63802;53.232;6.570;2023-04-25T09:33:38;4.85;;;1.35;;
75220;SDS011;63802;53.232;6.570;2023-04-25T09:38:36;11.45;;;1.95;;
75220;SDS011;63802;53.232;6.570;2023-04-25T09:41:09;6.63;;;1.25;;
75220;SDS011;63802;53.232;6.570;2023-04-25T09:43:35;6.13;;;1.15;;
75220;SDS011;63802;53.232;6.570;2023-04-25T09:46:00;6.10;;;1.30;;
75220;SDS011;63802;53.232;6.570;2023-04-25T09:48:27;5.43;;;1.13;;
75220;SDS011;63802;53.232;6.570;2023-04-25T09:51:03;5.32;;;0.90;;
75220;SDS011;63802;53.232;6.570;2023-04-25T09:53:37;4.55;;;1.10;;
75220;SDS011;63802;53.232;6.570;2023-04-25T09:56:05;9.95;;;1.38;;
75220;SDS011;63802;53.232;6.570;2023-04-25T09:58:32;3.67;;;1.00;;
75220;SDS011;63802;53.232;6.570;2023-04-25T10:01:00;7.68;;;1.30;;
75220;SDS011;63802;53.232;6.570;2023-04-25T10:03:29;13.60;;;2.42;;
75220;SDS011;63802;53.232;6.570;2023-04-25T10:05:57;4.85;;;1.17;;
75220;SDS011;63802;53.232;6.570;2023-04-25T10:08:25;6.88;;;1.70;;
75220;SDS011;63802;53.232;6.570;2023-04-25T10:10:56;5.90;;;1.27;;
75220;SDS011;63802;53.232;6.570;2023-04-25T10:13:22;5.57;;;1.35;;
75220;SDS011;63802;53.232;6.570;2023-04-25T10:15:48;8.75;;;1.25;;
75220;SDS011;63802;53.232;6.570;2023-04-25T10:18:14;3.33;;;0.90;;
75220;SDS011;63802;53.232;6.570;2023-04-25T10:20:40;5.68;;;1.38;;
75220;SDS011;63802;53.232;6.570;2023-04-25T10:23:11;10.15;;;1.10;;
75220;SDS011;63802;53.232;6.570;2023-04-25T10:25:38;5.05;;;1.35;;
75220;SDS011;63802;53.232;6.570;2023-04-25T10:28:05;8.05;;;2.30;;
75220;SDS011;63802;53.232;6.570;2023-04-25T10:30:31;4.15;;;1.10;;
75220;SDS011;63802;53.232;6.570;2023-04-25T10:32:56;10.35;;;1.30;;
75220;SDS011;63802;53.232;6.570;2023-04-25T10:40:34;6.72;;;1.60;;
75220;SDS011;63802;53.232;6.570;2023-04-25T10:45:56;5.95;;;1.40;;
75220;SDS011;63802;53.232;6.570;2023-04-25T10:48:25;4.22;;;1.08;;
75220;SDS011;63802;53.232;6.570;2023-04-25T10:51:11;3.15;;;1.05;;
75220;SDS011;63802;53.232;6.570;2023-04-25T10:53:40;6.38;;;1.60;;
75220;SDS011;63802;53.232;6.570;2023-04-25T10:56:22;4.53;;;1.65;;
75220;SDS011;63802;53.232;6.570;2023-04-25T10:58:49;10.52;;;1.40;;
75220;SDS011;63802;53.232;6.570;2023-04-25T11:01:19;4.72;;;1.05;;
75220;SDS011;63802;53.232;6.570;2023-04-25T11:03:56;5.15;;;1.23;;
75220;SDS011;63802;53.232;6.570;2023-04-25T11:06:25;5.95;;;1.33;;
75220;SDS011;63802;53.232;6.570;2023-04-25T11:09:00;3.85;;;1.10;;
75220;SDS011;63802;53.232;6.570;2023-04-25T11:11:27;2.45;;;0.80;;
75220;SDS011;63802;53.232;6.570;2023-04-25T11:13:54;8.07;;;1.20;;
75220;SDS011;63802;53.232;6.570;2023-04-25T11:16:19;7.35;;;0.95;;
75220;SDS011;63802;53.232;6.570;2023-04-25T11:18:48;6.82;;;1.05;;
75220;SDS011;63802;53.232;6.570;2023-04-25T11:21:14;5.97;;;1.17;;
75220;SDS011;63802;53.232;6.570;2023-04-25T11:23:40;4.38;;;1.17;;
75220;SDS011;63802;53.232;6.570;2023-04-25T11:26:06;6.05;;;1.50;;
75220;SDS011;63802;53.232;6.570;2023-04-25T11:28:32;9.07;;;1.30;;
75220;SDS011;63802;53.232;6.570;2023-04-25T11:30:57;7.25;;;1.40;;
75220;SDS011;63802;53.232;6.570;2023-04-25T11:33:24;6.07;;;1.42;;
75220;SDS011;63802;53.232;6.570;2023-04-25T11:35:52;4.43;;;1.10;;
75220;SDS011;63802;53.232;6.570;2023-04-25T11:38:19;5.10;;;1.35;;
75220;SDS011;63802;53.232;6.570;2023-04-25T11:40:48;9.88;;;1.50;;
75220;SDS011;63802;53.232;6.570;2023-04-25T11:43:15;5.00;;;1.27;;
75220;SDS011;63802;53.232;6.570;2023-04-25T11:45:41;7.72;;;1.58;;
75220;SDS011;63802;53.232;6.570;2023-04-25T11:48:06;3.80;;;0.98;;
75220;SDS011;63802;53.232;6.570;2023-04-25T11:50:32;4.53;;;1.20;;
75220;SDS011;63802;53.232;6.570;2023-04-25T11:52:57;11.95;;;1.60;;
75220;SDS011;63802;53.232;6.570;2023-04-25T11:55:23;5.78;;;1.10;;
75220;SDS011;63802;53.232;6.570;2023-04-25T11:57:49;3.20;;;1.63;;
75220;SDS011;63802;53.232;6.570;2023-04-25T12:00:21;3.47;;;1.97;;
75220;SDS011;63802;53.232;6.570;2023-04-25T12:05:16;4.03;;;0.90;;
75220;SDS011;63802;53.232;6.570;2023-04-25T12:07:45;4.82;;;1.10;;
75220;SDS011;63802;53.232;6.570;2023-04-25T12:10:12;9.80;;;1.27;;
75220;SDS011;63802;53.232;6.570;2023-04-25T12:12:42;6.80;;;0.93;;
75220;SDS011;63802;53.232;6.570;2023-04-25T12:15:10;6.80;;;1.20;;
75220;SDS011;63802;53.232;6.570;2023-04-25T12:17:37;5.10;;;0.98;;
75220;SDS011;63802;53.232;6.570;2023-04-25T12:20:10;4.18;;;1.17;;
75220;SDS011;63802;53.232;6.570;2023-04-25T12:22:40;5.25;;;1.10;;
75220;SDS011;63802;53.232;6.570;2023-04-25T12:25:09;3.30;;;0.90;;
75220;SDS011;63802;53.232;6.570;2023-04-25T12:27:54;7.70;;;0.98;;
75220;SDS011;63802;53.232;6.570;2023-04-25T12:30:20;5.20;;;1.30;;
75220;SDS011;63802;53.232;6.570;2023-04-25T12:32:45;4.95;;;1.70;;
75220;SDS011;63802;53.232;6.570;2023-04-25T12:35:12;5.78;;;1.58;;
75220;SDS011;63802;53.232;6.570;2023-04-25T12:37:38;6.95;;;1.05;;
75220;SDS011;63802;53.232;6.570;2023-04-25T12:40:03;5.28;;;1.30;;
75220;SDS011;63802;53.232;6.570;2023-04-25T12:42:29;3.75;;;1.02;;
75220;SDS011;63802;53.232;6.570;2023-04-25T12:44:54;5.60;;;1.35;;
75220;SDS011;63802;53.232;6.570;2023-04-25T12:47:20;9.45;;;1.42;;
75220;SDS011;63802;53.232;6.570;2023-04-25T12:49:45;6.55;;;1.48;;
75220;SDS011;63802;53.232;6.570;2023-04-25T12:52:11;7.28;;;1.30;;
75220;SDS011;63802;53.232;6.570;2023-04-25T12:54:36;3.08;;;0.93;;
75220;SDS011;63802;53.232;6.570;2023-04-25T12:57:03;5.88;;;1.20;;
75220;SDS011;63802;53.232;6.570;2023-04-25T12:59:29;6.80;;;1.20;;
75220;SDS011;63802;53.232;6.570;2023-04-25T13:01:54;8.80;;;1.70;;
75220;SDS011;63802;53.232;6.570;2023-04-25T13:04:20;4.90;;;1.63;;
75220;SDS011;63802;53.232;6.570;2023-04-25T13:06:46;4.22;;;1.15;;
75220;SDS011;63802;53.232;6.570;2023-04-25T13:09:12;10.90;;;1.65;;
75220;SDS011;63802;53.232;6.570;2023-04-25T13:11:37;3.78;;;1.00;;
75220;SDS011;63802;53.232;6.570;2023-04-25T13:14:02;4.75;;;1.15;;
75220;SDS011;63802;53.232;6.570;2023-04-25T13:16:28;6.80;;;1.33;;
75220;SDS011;63802;53.232;6.570;2023-04-25T13:18:53;6.93;;;0.98;;
75220;SDS011;63802;53.232;6.570;2023-04-25T13:21:20;3.85;;;0.95;;
75220;SDS011;63802;53.232;6.570;2023-04-25T13:23:46;7.07;;;1.40;;
75220;SDS011;63802;53.232;6.570;2023-04-25T13:26:11;2.90;;;1.00;;
75220;SDS011;63802;53.232;6.570;2023-04-25T13:28:37;8.50;;;1.60;;
75220;SDS011;63802;53.232;6.570;2023-04-25T13:31:02;6.13;;;1.45;;
75220;SDS011;63802;53.232;6.570;2023-04-25T13:33:28;7.82;;;1.63;;
75220;SDS011;63802;53.232;6.570;2023-04-25T13:35:53;3.72;;;1.02;;
75220;SDS011;63802;53.232;6.570;2023-04-25T13:38:23;3.20;;;1.33;;
75220;SDS011;63802;53.232;6.570;2023-04-25T13:40:50;2.90;;;1.38;;
75220;SDS011;63802;53.232;6.570;2023-04-25T13:43:18;4.07;;;1.20;;
75220;SDS011;63802;53.232;6.570;2023-04-25T13:45:44;10.20;;;1.70;;
75220;SDS011;63802;53.232;6.570;2023-04-25T13:48:10;11.65;;;1.88;;
75220;SDS011;63802;53.232;6.570;2023-04-25T13:50:35;5.25;;;1.15;;
75220;SDS011;63802;53.232;6.570;2023-04-25T13:53:01;4.68;;;1.10;;
75220;SDS011;63802;53.232;6.570;2023-04-25T13:55:26;4.85;;;1.40;;
75220;SDS011;63802;53.232;6.570;2023-04-25T13:57:52;4.32;;;1.25;;
75220;SDS011;63802;53.232;6.570;2023-04-25T14:00:18;4.90;;;1.45;;
75220;SDS011;63802;53.232;6.570;2023-04-25T14:02:45;3.92;;;1.00;;
75220;SDS011;63802;53.232;6.570;2023-04-25T14:05:10;10.18;;;1.77;;
75220;SDS011;63802;53.232;6.570;2023-04-25T14:07:36;2.72;;;1.05;;
75220;SDS011;63802;53.232;6.570;2023-04-25T14:10:02;7.30;;;1.50;;
75220;SDS011;63802;53.232;6.570;2023-04-25T14:12:29;9.82;;;1.50;;
75220;SDS011;63802;53.232;6.570;2023-04-25T14:14:55;3.13;;;0.93;;
75220;SDS011;63802;53.232;6.570;2023-04-25T14:17:20;4.32;;;1.30;;
75220;SDS011;63802;53.232;6.570;2023-04-25T14:19:46;4.10;;;1.15;;
75220;SDS011;63802;53.232;6.570;2023-04-25T14:22:13;8.88;;;1.25;;
75220;SDS011;63802;53.232;6.570;2023-04-25T14:24:40;3.35;;;1.05;;
75220;SDS011;63802;53.232;6.570;2023-04-25T14:27:06;6.45;;;1.23;;
75220;SDS011;63802;53.232;6.570;2023-04-25T14:29:31;8.52;;;1.27;;
75220;SDS011;63802;53.232;6.570;2023-04-25T14:31:57;7.82;;;1.52;;
75220;SDS011;63802;53.232;6.570;2023-04-25T14:34:23;6.90;;;1.33;;
75220;SDS011;63802;53.232;6.570;2023-04-25T14:36:49;12.25;;;1.55;;
75220;SDS011;63802;53.232;6.570;2023-04-25T14:39:15;6.10;;;1.27;;
75220;SDS011;63802;53.232;6.570;2023-04-25T14:41:41;7.43;;;1.55;;
75220;SDS011;63802;53.232;6.570;2023-04-25T14:44:07;5.65;;;1.52;;
75220;SDS011;63802;53.232;6.570;2023-04-25T14:46:33;5.15;;;1.10;;
75220;SDS011;63802;53.232;6.570;2023-04-25T14:48:58;6.68;;;1.35;;
75220;SDS011;63802;53.232;6.570;2023-04-25T14:51:24;3.97;;;1.02;;
75220;SDS011;63802;53.232;6.570;2023-04-25T14:53:51;5.97;;;1.13;;
75220;SDS011;63802;53.232;6.570;2023-04-25T14:56:17;1.52;;;1.00;;